createdAt,value
2023-01-19T00:01:46.435Z,-3.46
2023-01-19T00:04:03.751Z,-3.47
2023-01-19T00:06:21.779Z,-3.41
2023-01-19T00:08:39.094Z,-3.42
2023-01-19T00:10:56.060Z,-3.45
2023-01-19T00:13:13.419Z,-3.51
2023-01-19T00:15:30.440Z,-3.53
2023-01-19T00:17:47.500Z,-3.55
2023-01-19T00:20:05.404Z,-3.57
2023-01-19T00:22:22.822Z,-3.61
2023-01-19T00:24:40.188Z,-3.63
2023-01-19T00:26:57.199Z,-3.67
2023-01-19T00:29:14.221Z,-3.71
2023-01-19T00:31:31.291Z,-3.73
2023-01-19T00:33:48.492Z,-3.74
2023-01-19T00:36:05.397Z,-3.76
2023-01-19T00:38:22.699Z,-3.80
2023-01-19T00:40:40.000Z,-3.81
2023-01-19T00:42:58.322Z,-3.82
2023-01-19T00:45:15.497Z,-3.82
2023-01-19T00:47:32.769Z,-3.80
2023-01-19T00:49:49.845Z,-3.81
2023-01-19T00:52:07.097Z,-3.81
2023-01-19T00:54:24.434Z,-3.86
2023-01-19T00:56:41.665Z,-3.87
2023-01-19T00:58:58.581Z,-3.90
2023-01-19T01:01:15.489Z,-3.87
2023-01-19T01:03:32.553Z,-3.91
2023-01-19T01:05:49.592Z,-3.93
2023-01-19T01:08:06.902Z,-3.94
2023-01-19T01:10:24.899Z,-3.93
2023-01-19T01:12:42.111Z,-3.89
2023-01-19T01:15:14.371Z,-3.86
2023-01-19T01:17:31.690Z,-3.82
2023-01-19T01:19:48.551Z,-3.80
2023-01-19T01:22:05.582Z,-3.78
2023-01-19T01:24:22.524Z,-3.75
2023-01-19T01:26:40.833Z,-3.70
2023-01-19T01:28:57.820Z,-3.68
2023-01-19T01:31:16.145Z,-3.70
2023-01-19T01:33:40.773Z,-3.67
2023-01-19T01:35:58.751Z,-3.70
2023-01-19T01:38:16.016Z,-3.74
2023-01-19T01:40:33.065Z,-3.75
2023-01-19T01:42:51.230Z,-3.71
2023-01-19T01:45:08.494Z,-3.72
2023-01-19T01:47:25.763Z,-3.70
2023-01-19T01:49:42.750Z,-3.71
2023-01-19T01:52:01.045Z,-3.73
2023-01-19T01:54:17.972Z,-3.76
2023-01-19T01:56:34.991Z,-3.73
2023-01-19T01:58:52.074Z,-3.73
2023-01-19T02:01:09.172Z,-3.71
2023-01-19T02:03:26.666Z,-3.69
2023-01-19T02:05:43.940Z,-3.66
2023-01-19T02:08:01.025Z,-3.55
2023-01-19T02:10:18.128Z,-3.54
2023-01-19T02:12:35.675Z,-3.54
2023-01-19T02:14:53.998Z,-3.51
2023-01-19T02:17:11.136Z,-3.53
2023-01-19T02:19:28.126Z,-3.56
2023-01-19T02:21:45.182Z,-3.56
2023-01-19T02:24:02.163Z,-3.52
2023-01-19T02:26:19.124Z,-3.49
2023-01-19T02:28:36.136Z,-3.48
2023-01-19T02:30:53.259Z,-3.45
2023-01-19T02:33:10.323Z,-3.43
2023-01-19T02:35:27.375Z,-3.31
2023-01-19T02:37:44.427Z,-3.29
2023-01-19T02:40:01.782Z,-3.24
2023-01-19T02:42:19.153Z,-3.15
2023-01-19T02:44:36.200Z,-3.15
2023-01-19T02:46:53.130Z,-3.12
2023-01-19T02:49:10.211Z,-3.10
2023-01-19T02:51:27.161Z,-3.08
2023-01-19T02:53:44.210Z,-3.05
2023-01-19T02:56:01.196Z,-3.01
2023-01-19T02:58:18.502Z,-2.99
2023-01-19T03:00:36.733Z,-2.94
2023-01-19T03:02:54.211Z,-2.92
2023-01-19T03:05:12.241Z,-2.83
2023-01-19T03:07:29.571Z,-2.80
2023-01-19T03:09:46.485Z,-2.73
2023-01-19T03:12:03.603Z,-2.63
2023-01-19T03:14:21.817Z,-2.64
2023-01-19T03:16:38.894Z,-2.62
2023-01-19T03:18:55.867Z,-2.55
2023-01-19T03:21:14.129Z,-2.52
2023-01-19T03:23:31.616Z,-2.48
2023-01-19T03:25:48.668Z,-2.36
2023-01-19T03:28:05.640Z,-2.27
2023-01-19T03:30:22.625Z,-2.14
2023-01-19T03:32:40.520Z,-1.80
2023-01-19T03:34:57.602Z,-1.75
2023-01-19T03:37:15.623Z,-1.73
2023-01-19T03:39:32.679Z,-1.69
2023-01-19T03:41:50.010Z,-1.65
2023-01-19T03:44:07.213Z,-1.64
2023-01-19T03:46:24.247Z,-1.62
2023-01-19T03:48:41.202Z,-1.57
2023-01-19T03:50:58.468Z,-1.58
2023-01-19T03:53:15.541Z,-1.58
2023-01-19T03:55:32.581Z,-1.58
2023-01-19T03:57:49.618Z,-1.55
2023-01-19T04:00:07.554Z,-1.55
2023-01-19T04:02:24.815Z,-1.55
2023-01-19T04:04:42.158Z,-1.59
2023-01-19T04:06:59.423Z,-1.58
2023-01-19T04:09:19.193Z,-1.58
2023-01-19T04:11:36.537Z,-1.61
2023-01-19T04:13:53.514Z,-1.60
2023-01-19T04:16:11.766Z,-1.58
2023-01-19T04:18:29.011Z,-1.60
2023-01-19T04:20:46.016Z,-1.59
2023-01-19T04:23:03.753Z,-1.61
2023-01-19T04:25:21.147Z,-1.62
2023-01-19T04:27:38.193Z,-1.61
2023-01-19T04:29:55.245Z,-1.60
2023-01-19T04:32:13.362Z,-1.58
2023-01-19T04:34:30.399Z,-1.53
2023-01-19T04:36:47.769Z,-1.43
2023-01-19T04:39:04.751Z,-1.32
2023-01-19T04:41:21.787Z,-1.23
2023-01-19T04:43:39.132Z,-1.16
2023-01-19T04:45:56.385Z,-1.09
2023-01-19T04:48:13.640Z,-1.05
2023-01-19T04:50:30.936Z,-1.01
2023-01-19T04:52:47.999Z,-0.97
2023-01-19T04:55:05.358Z,-0.94
2023-01-19T04:57:22.769Z,-0.93
2023-01-19T04:59:40.283Z,-0.92
2023-01-19T05:01:57.445Z,-0.91
2023-01-19T05:04:14.664Z,-0.87
2023-01-19T05:06:31.897Z,-0.78
2023-01-19T05:08:48.955Z,-0.68
2023-01-19T05:11:06.211Z,-0.66
2023-01-19T05:13:23.339Z,-0.64
2023-01-19T05:15:41.408Z,-0.64
2023-01-19T05:18:00.870Z,-0.63
2023-01-19T05:20:17.934Z,-0.64
2023-01-19T05:22:35.219Z,-0.65
2023-01-19T05:24:52.511Z,-0.65
2023-01-19T05:27:09.443Z,-0.62
2023-01-19T05:29:26.513Z,-0.64
2023-01-19T05:31:43.631Z,-0.68
2023-01-19T05:34:01.799Z,-0.73
2023-01-19T05:36:18.809Z,-0.78
2023-01-19T05:38:37.077Z,-0.83
2023-01-19T05:40:54.106Z,-0.92
2023-01-19T05:43:11.289Z,-0.92
2023-01-19T05:45:28.297Z,-0.96
2023-01-19T05:47:45.687Z,-0.94
2023-01-19T05:50:02.809Z,-0.92
2023-01-19T05:52:19.901Z,-0.87
2023-01-19T05:54:36.836Z,-0.81
2023-01-19T05:56:53.894Z,-0.78
2023-01-19T05:59:10.798Z,-0.73
2023-01-19T06:01:30.844Z,-0.71
2023-01-19T06:03:47.895Z,-0.68
2023-01-19T06:06:04.914Z,-0.67
2023-01-19T06:08:22.171Z,-0.65
2023-01-19T06:10:40.083Z,-0.62
2023-01-19T06:12:57.172Z,-0.61
2023-01-19T06:15:14.232Z,-0.61
2023-01-19T06:17:31.316Z,-0.57
2023-01-19T06:19:48.275Z,-0.55
2023-01-19T06:22:05.307Z,-0.52
2023-01-19T06:24:22.346Z,-0.50
2023-01-19T06:26:39.276Z,-0.49
2023-01-19T06:28:56.591Z,-0.47
2023-01-19T06:31:13.877Z,-0.47
2023-01-19T06:33:33.983Z,-0.47
2023-01-19T06:35:51.423Z,-0.46
2023-01-19T06:38:08.984Z,-0.44
2023-01-19T06:40:25.988Z,-0.45
2023-01-19T06:42:43.100Z,-0.43
2023-01-19T06:45:00.099Z,-0.41
2023-01-19T06:47:17.066Z,-0.40
2023-01-19T06:49:34.048Z,-0.37
2023-01-19T06:51:51.326Z,-0.36
2023-01-19T06:54:08.732Z,-0.35
2023-01-19T06:56:25.773Z,-0.34
2023-01-19T06:58:43.115Z,-0.34
2023-01-19T07:01:00.558Z,-0.35
2023-01-19T07:03:18.965Z,-0.35
2023-01-19T07:05:35.941Z,-0.36
2023-01-19T07:07:53.428Z,-0.33
2023-01-19T07:10:11.782Z,-0.33
2023-01-19T07:12:28.787Z,-0.31
2023-01-19T07:14:45.930Z,-0.31
2023-01-19T07:17:03.018Z,-0.32
2023-01-19T07:19:20.196Z,-0.29
2023-01-19T07:21:38.438Z,-0.28
2023-01-19T07:23:55.404Z,-0.27
2023-01-19T07:26:12.511Z,-0.28
2023-01-19T07:28:29.581Z,-0.28
2023-01-19T07:30:47.589Z,-0.34
2023-01-19T07:33:04.711Z,-0.36
2023-01-19T07:35:21.737Z,-0.34
2023-01-19T07:37:38.777Z,-0.41
2023-01-19T07:39:55.739Z,-0.46
2023-01-19T07:42:12.709Z,-0.55
2023-01-19T07:44:29.980Z,-0.63
2023-01-19T07:46:47.933Z,-0.73
2023-01-19T07:49:04.986Z,-0.79
2023-01-19T07:51:21.915Z,-0.75
2023-01-19T07:53:39.903Z,-0.78
2023-01-19T07:55:56.881Z,-0.85
2023-01-19T07:58:13.950Z,-0.91
2023-01-19T08:00:31.422Z,-0.91
2023-01-19T08:02:49.728Z,-0.96
2023-01-19T08:05:06.745Z,-1.00
2023-01-19T08:07:23.714Z,-0.99
2023-01-19T08:09:40.680Z,-1.04
2023-01-19T08:11:57.924Z,-1.01
2023-01-19T08:14:14.983Z,-0.93
2023-01-19T08:16:31.989Z,-0.89
2023-01-19T08:18:49.035Z,-0.87
2023-01-19T08:21:06.145Z,-0.89
2023-01-19T08:23:24.326Z,-0.90
2023-01-19T08:25:41.350Z,-0.90
2023-01-19T08:27:58.394Z,-0.89
2023-01-19T08:30:15.610Z,-0.86
2023-01-19T08:32:32.642Z,-0.79
2023-01-19T08:34:49.579Z,-0.67
2023-01-19T08:37:06.618Z,-0.57
2023-01-19T08:39:23.620Z,-0.46
2023-01-19T08:41:40.845Z,-0.33
2023-01-19T08:43:58.063Z,-0.18
2023-01-19T08:46:15.045Z,-0.08
2023-01-19T08:48:31.992Z,0.01
2023-01-19T08:50:48.977Z,0.09
2023-01-19T08:53:06.239Z,0.17
2023-01-19T08:55:23.207Z,0.24
2023-01-19T08:57:40.133Z,0.32
2023-01-19T08:59:57.209Z,0.44
2023-01-19T09:02:15.180Z,0.58
2023-01-19T09:04:32.296Z,0.74
2023-01-19T09:06:49.392Z,0.90
2023-01-19T09:09:07.319Z,1.02
2023-01-19T09:11:24.672Z,1.06
2023-01-19T09:13:42.004Z,1.13
2023-01-19T09:16:00.240Z,1.14
2023-01-19T09:18:17.301Z,1.15
2023-01-19T09:20:35.494Z,1.16
2023-01-19T09:22:53.548Z,1.20
2023-01-19T09:25:10.765Z,1.21
2023-01-19T09:27:28.080Z,1.21
2023-01-19T09:29:45.097Z,1.20
2023-01-19T09:32:02.379Z,1.20
2023-01-19T09:34:19.275Z,1.24
2023-01-19T09:36:36.566Z,1.23
2023-01-19T09:38:53.684Z,1.25
2023-01-19T09:41:11.010Z,1.32
2023-01-19T09:43:28.051Z,1.31
2023-01-19T09:45:46.244Z,1.34
2023-01-19T09:48:03.582Z,1.34
2023-01-19T09:50:20.956Z,1.39
2023-01-19T09:52:37.938Z,1.39
2023-01-19T09:54:54.935Z,1.45
2023-01-19T09:57:11.862Z,1.53
2023-01-19T09:59:28.898Z,1.70
2023-01-19T10:01:45.898Z,1.96
2023-01-19T10:04:03.933Z,1.99
2023-01-19T10:06:20.856Z,1.97
2023-01-19T10:08:39.799Z,2.00
2023-01-19T10:10:56.999Z,2.03
2023-01-19T10:13:14.999Z,2.04
2023-01-19T10:15:32.053Z,2.19
2023-01-19T10:17:50.123Z,2.26
2023-01-19T10:20:07.092Z,2.07
2023-01-19T10:22:24.393Z,2.08
2023-01-19T10:24:41.439Z,2.06
2023-01-19T10:26:58.353Z,2.09
2023-01-19T10:29:15.665Z,2.10
2023-01-19T10:31:32.767Z,2.14
2023-01-19T10:33:50.053Z,2.17
2023-01-19T10:36:07.165Z,2.28
2023-01-19T10:38:25.380Z,2.30
2023-01-19T10:40:43.201Z,2.37
2023-01-19T10:43:01.584Z,2.52
2023-01-19T10:45:19.245Z,2.63
2023-01-19T10:47:36.300Z,2.73
2023-01-19T10:49:53.335Z,2.74
2023-01-19T10:52:10.236Z,2.71
2023-01-19T10:54:27.293Z,2.72
2023-01-19T10:56:46.947Z,2.97
2023-01-19T10:59:04.188Z,3.16
2023-01-19T11:01:21.585Z,3.01
2023-01-19T11:03:38.929Z,3.19
2023-01-19T11:05:56.116Z,3.16
2023-01-19T11:08:13.802Z,3.20
2023-01-19T11:10:30.728Z,3.18
2023-01-19T11:12:48.772Z,3.20
2023-01-19T11:15:05.777Z,3.33
2023-01-19T11:17:23.011Z,3.35
2023-01-19T11:19:39.947Z,3.42
2023-01-19T11:21:57.192Z,3.49
2023-01-19T11:24:14.222Z,3.58
2023-01-19T11:26:31.287Z,3.50
2023-01-19T11:28:48.531Z,3.58
2023-01-19T11:31:05.891Z,3.57
2023-01-19T11:33:23.923Z,3.46
2023-01-19T11:35:40.930Z,3.50
2023-01-19T11:37:58.175Z,3.70
2023-01-19T11:40:15.272Z,3.80
2023-01-19T11:42:32.349Z,3.73
2023-01-19T11:44:49.333Z,3.67
2023-01-19T11:47:06.275Z,3.68
2023-01-19T11:49:23.570Z,3.78
2023-01-19T11:51:41.846Z,3.82
2023-01-19T11:53:59.124Z,3.88
2023-01-19T11:56:16.033Z,4.08
2023-01-19T11:58:34.831Z,4.21
2023-01-19T12:00:54.167Z,4.28
2023-01-19T12:03:12.120Z,4.39
2023-01-19T12:05:29.577Z,4.52
2023-01-19T12:07:46.921Z,4.56
2023-01-19T12:10:04.300Z,4.58
2023-01-19T12:12:23.037Z,4.68
2023-01-19T12:14:40.549Z,4.51
2023-01-19T12:16:59.025Z,4.45
2023-01-19T12:19:16.056Z,4.37
2023-01-19T12:21:34.662Z,4.58
2023-01-19T12:23:52.009Z,4.43
2023-01-19T12:26:09.121Z,4.38
2023-01-19T12:28:26.374Z,4.17
2023-01-19T12:30:43.802Z,4.13
2023-01-19T12:33:01.094Z,4.14
2023-01-19T12:35:18.172Z,4.09
2023-01-19T12:37:35.295Z,4.00
2023-01-19T12:39:52.647Z,3.99
2023-01-19T12:42:09.879Z,3.99
2023-01-19T12:44:27.701Z,3.93
2023-01-19T12:46:44.958Z,4.02
2023-01-19T12:49:02.161Z,4.22
2023-01-19T12:51:19.228Z,4.18
2023-01-19T12:53:36.230Z,4.29
2023-01-19T12:55:53.250Z,4.14
2023-01-19T12:58:10.536Z,4.16
2023-01-19T13:00:31.021Z,4.06
2023-01-19T13:02:48.355Z,3.95
2023-01-19T13:05:05.447Z,3.98
2023-01-19T13:07:25.380Z,4.09
2023-01-19T13:09:42.931Z,4.04
2023-01-19T13:12:01.015Z,4.00
2023-01-19T13:14:18.190Z,4.03
2023-01-19T13:16:35.228Z,3.96
2023-01-19T13:18:52.274Z,4.05
2023-01-19T13:21:09.380Z,3.98
2023-01-19T13:23:26.327Z,3.99
2023-01-19T13:25:43.311Z,3.80
2023-01-19T13:28:00.408Z,3.83
2023-01-19T13:30:18.810Z,3.87
2023-01-19T13:32:38.362Z,4.02
2023-01-19T13:34:56.710Z,4.06
2023-01-19T13:37:13.660Z,4.05
2023-01-19T13:39:30.602Z,4.14
2023-01-19T13:41:48.682Z,4.17
2023-01-19T13:44:07.271Z,4.18
2023-01-19T13:46:24.410Z,4.11
2023-01-19T13:48:41.406Z,4.07
2023-01-19T13:50:58.488Z,4.01
2023-01-19T13:53:17.445Z,3.97
2023-01-19T13:55:37.190Z,4.02
2023-01-19T13:57:54.590Z,4.08
2023-01-19T14:00:11.693Z,3.87
2023-01-19T14:02:29.266Z,4.06
2023-01-19T14:04:46.276Z,3.91
2023-01-19T14:07:03.415Z,3.75
2023-01-19T14:09:20.903Z,3.82
2023-01-19T14:11:38.002Z,3.72
2023-01-19T14:13:55.311Z,3.85
2023-01-19T14:16:14.053Z,3.74
2023-01-19T14:18:31.285Z,3.63
2023-01-19T14:20:48.198Z,3.68
2023-01-19T14:23:05.174Z,3.52
2023-01-19T14:25:22.263Z,3.52
2023-01-19T14:27:39.661Z,3.66
2023-01-19T14:29:56.825Z,3.64
2023-01-19T14:32:13.698Z,3.62
2023-01-19T14:34:31.298Z,3.45
2023-01-19T14:36:48.248Z,3.41
2023-01-19T14:39:05.234Z,3.45
2023-01-19T14:41:22.349Z,3.55
2023-01-19T14:43:39.434Z,3.54
2023-01-19T14:45:58.125Z,3.41
2023-01-19T14:48:17.824Z,3.35
2023-01-19T14:50:36.033Z,3.40
2023-01-19T14:52:53.073Z,3.26
2023-01-19T14:55:10.658Z,3.23
2023-01-19T14:57:27.862Z,3.15
2023-01-19T14:59:44.985Z,3.14
2023-01-19T15:02:03.522Z,3.12
2023-01-19T15:04:20.501Z,3.10
2023-01-19T15:06:37.504Z,3.10
2023-01-19T15:08:55.053Z,3.10
2023-01-19T15:11:12.091Z,3.04
2023-01-19T15:13:30.184Z,3.02
2023-01-19T15:15:49.548Z,3.05
2023-01-19T15:18:06.520Z,3.01
2023-01-19T15:20:23.476Z,3.03
2023-01-19T15:22:40.774Z,3.04
2023-01-19T15:24:57.752Z,3.04
2023-01-19T15:27:17.979Z,3.07
2023-01-19T15:29:35.049Z,3.01
2023-01-19T15:31:52.571Z,3.02
2023-01-19T15:34:10.735Z,2.94
2023-01-19T15:36:27.746Z,2.88
2023-01-19T15:38:45.111Z,2.76
2023-01-19T15:41:02.418Z,2.69
2023-01-19T15:43:19.442Z,2.65
2023-01-19T15:45:36.517Z,2.65
2023-01-19T15:47:53.534Z,2.62
2023-01-19T15:50:11.878Z,2.60
2023-01-19T15:52:29.114Z,2.59
2023-01-19T15:54:47.177Z,2.59
2023-01-19T15:57:04.599Z,2.61
2023-01-19T15:59:22.910Z,2.55
2023-01-19T16:01:40.325Z,2.50
2023-01-19T16:03:58.352Z,2.50
2023-01-19T16:06:15.733Z,2.47
2023-01-19T16:08:33.831Z,2.40
2023-01-19T16:10:50.784Z,2.36
2023-01-19T16:13:07.817Z,2.34
2023-01-19T16:15:25.112Z,2.31
2023-01-19T16:17:43.433Z,2.24
2023-01-19T16:20:01.450Z,2.22
2023-01-19T16:22:18.740Z,2.17
2023-01-19T16:24:36.174Z,2.12
2023-01-19T16:26:53.248Z,2.08
2023-01-19T16:29:10.244Z,2.05
2023-01-19T16:31:27.713Z,2.03
2023-01-19T16:33:45.780Z,2.02
2023-01-19T16:36:02.860Z,1.97
2023-01-19T16:38:19.882Z,1.93
2023-01-19T16:40:37.835Z,1.92
2023-01-19T16:42:54.823Z,1.86
2023-01-19T16:45:12.898Z,1.78
2023-01-19T16:47:30.306Z,1.75
2023-01-19T16:49:47.692Z,1.68
2023-01-19T16:52:04.843Z,1.65
2023-01-19T16:54:22.214Z,1.62
2023-01-19T16:56:39.241Z,1.61
2023-01-19T16:58:59.062Z,1.52
2023-01-19T17:01:17.784Z,1.48
2023-01-19T17:03:36.714Z,1.48
2023-01-19T17:05:55.654Z,1.48
2023-01-19T17:08:15.497Z,1.39
2023-01-19T17:10:33.522Z,1.37
2023-01-19T17:12:50.519Z,1.29
2023-01-19T17:15:07.515Z,1.25
2023-01-19T17:17:24.527Z,1.20
2023-01-19T17:19:41.819Z,1.24
2023-01-19T17:21:59.101Z,1.24
2023-01-19T17:24:16.034Z,1.25
2023-01-19T17:26:33.301Z,1.25
2023-01-19T17:28:50.243Z,1.25
2023-01-19T17:31:07.318Z,1.23
2023-01-19T17:33:24.685Z,1.24
2023-01-19T17:35:41.911Z,1.24
2023-01-19T17:37:58.939Z,1.21
2023-01-19T17:40:15.985Z,1.23
2023-01-19T17:42:33.228Z,1.20
2023-01-19T17:44:50.486Z,1.23
2023-01-19T17:47:07.752Z,1.27
2023-01-19T17:49:24.784Z,1.25
2023-01-19T17:51:42.880Z,1.22
2023-01-19T17:54:00.324Z,1.26
2023-01-19T17:56:17.401Z,1.27
2023-01-19T17:58:34.393Z,1.24
2023-01-19T18:00:51.481Z,1.21
2023-01-19T18:03:08.422Z,1.18
2023-01-19T18:05:25.377Z,1.18
2023-01-19T18:07:42.396Z,1.19
2023-01-19T18:10:01.077Z,1.16
2023-01-19T18:12:18.544Z,1.11
2023-01-19T18:14:35.873Z,1.11
2023-01-19T18:16:54.156Z,1.13
2023-01-19T18:19:11.207Z,1.07
2023-01-19T18:21:28.322Z,1.05
2023-01-19T18:23:45.576Z,1.05
2023-01-19T18:26:02.900Z,1.01
2023-01-19T18:28:20.010Z,0.90
2023-01-19T18:30:37.290Z,0.85
2023-01-19T18:32:54.317Z,0.84
2023-01-19T18:35:11.286Z,0.81
2023-01-19T18:37:28.557Z,0.77
2023-01-19T18:39:46.848Z,0.72
2023-01-19T18:42:04.196Z,0.66
2023-01-19T18:44:22.441Z,0.60
2023-01-19T18:46:39.588Z,0.61
2023-01-19T18:48:57.588Z,0.58
2023-01-19T18:51:17.390Z,0.54
2023-01-19T18:53:34.425Z,0.55
2023-01-19T18:55:52.603Z,0.59
2023-01-19T18:58:10.846Z,0.59
2023-01-19T19:00:29.282Z,0.59
2023-01-19T19:02:46.629Z,0.60
2023-01-19T19:05:03.934Z,0.60
2023-01-19T19:07:20.871Z,0.60
2023-01-19T19:09:37.985Z,0.58
2023-01-19T19:11:55.251Z,0.58
2023-01-19T19:14:12.502Z,0.57
2023-01-19T19:16:31.332Z,0.56
2023-01-19T19:18:49.471Z,0.56
2023-01-19T19:21:06.503Z,0.58
2023-01-19T19:23:23.527Z,0.58
2023-01-19T19:25:40.559Z,0.61
2023-01-19T19:27:57.927Z,0.62
2023-01-19T19:30:15.382Z,0.63
2023-01-19T19:32:32.925Z,0.63
2023-01-19T19:34:50.041Z,0.63
2023-01-19T19:37:07.028Z,0.66
2023-01-19T19:39:24.072Z,0.68
2023-01-19T19:41:41.414Z,0.68
2023-01-19T19:43:58.724Z,0.71
2023-01-19T19:46:16.738Z,0.70
2023-01-19T19:48:33.847Z,0.73
2023-01-19T19:50:50.868Z,0.74
2023-01-19T19:53:08.097Z,0.74
2023-01-19T19:55:25.204Z,0.73
2023-01-19T19:57:42.475Z,0.76
2023-01-19T19:59:59.476Z,0.73
2023-01-19T20:02:16.809Z,0.74
2023-01-19T20:04:34.142Z,0.70
2023-01-19T20:06:51.196Z,0.67
2023-01-19T20:09:08.193Z,0.63
2023-01-19T20:11:25.098Z,0.60
2023-01-19T20:13:42.119Z,0.48
2023-01-19T20:15:59.217Z,0.41
2023-01-19T20:18:16.318Z,0.32
2023-01-19T20:20:33.671Z,0.35
2023-01-19T20:22:50.857Z,0.25
2023-01-19T20:25:08.072Z,0.16
2023-01-19T20:27:24.943Z,0.10
2023-01-19T20:29:41.849Z,0.04
2023-01-19T20:31:59.171Z,-0.03
2023-01-19T20:34:16.123Z,-0.05
2023-01-19T20:36:33.208Z,-0.08
2023-01-19T20:38:50.248Z,-0.15
2023-01-19T20:41:07.352Z,-0.23
2023-01-19T20:43:24.461Z,-0.32
2023-01-19T20:45:41.455Z,-0.41
2023-01-19T20:47:58.808Z,-0.44
2023-01-19T20:50:16.137Z,-0.53
2023-01-19T20:52:33.091Z,-0.54
2023-01-19T20:54:50.346Z,-0.56
2023-01-19T20:57:07.453Z,-0.64
2023-01-19T20:59:24.682Z,-0.68
2023-01-19T21:01:42.385Z,-0.74
2023-01-19T21:03:59.670Z,-0.80
2023-01-19T21:06:18.029Z,-0.83
2023-01-19T21:08:35.022Z,-0.89
2023-01-19T21:10:51.928Z,-0.91
2023-01-19T21:13:08.869Z,-0.94
2023-01-19T21:15:28.390Z,-0.98
2023-01-19T21:17:45.567Z,-0.99
2023-01-19T21:20:02.627Z,-1.01
2023-01-19T21:22:19.841Z,-1.07
2023-01-19T21:24:36.787Z,-1.09
2023-01-19T21:26:53.914Z,-1.10
2023-01-19T21:29:11.002Z,-1.10
2023-01-19T21:31:28.412Z,-1.11
2023-01-19T21:33:45.731Z,-1.13
2023-01-19T21:36:02.757Z,-1.17
2023-01-19T21:38:20.085Z,-1.19
2023-01-19T21:40:52.750Z,-1.22
2023-01-19T21:43:10.163Z,-1.27
2023-01-19T21:45:27.324Z,-1.31
2023-01-19T21:47:44.684Z,-1.33
2023-01-19T21:50:02.812Z,-1.37
2023-01-19T21:52:20.196Z,-1.40
2023-01-19T21:54:37.136Z,-1.42
2023-01-19T21:56:54.134Z,-1.46
2023-01-19T21:59:12.147Z,-1.47
2023-01-19T22:01:29.622Z,-1.50
2023-01-19T22:03:46.766Z,-1.54
2023-01-19T22:06:04.019Z,-1.59
2023-01-19T22:08:22.198Z,-1.61
2023-01-19T22:10:39.178Z,-1.62
2023-01-19T22:12:56.231Z,-1.63
2023-01-19T22:15:13.634Z,-1.65
2023-01-19T22:17:31.068Z,-1.64
2023-01-19T22:19:48.209Z,-1.65
2023-01-19T22:22:05.242Z,-1.65
2023-01-19T22:24:24.984Z,-1.69
2023-01-19T22:26:42.019Z,-1.70
2023-01-19T22:28:59.203Z,-1.74
2023-01-19T22:31:16.445Z,-1.75
2023-01-19T22:33:33.976Z,-1.75
2023-01-19T22:35:53.831Z,-1.76
2023-01-19T22:38:10.886Z,-1.77
2023-01-19T22:40:28.861Z,-1.78
2023-01-19T22:42:45.753Z,-1.78
2023-01-19T22:45:02.655Z,-1.80
2023-01-19T22:47:19.538Z,-1.81
2023-01-19T22:49:37.858Z,-1.81
2023-01-19T22:51:54.752Z,-1.83
2023-01-19T22:54:13.089Z,-1.84
2023-01-19T22:56:30.066Z,-1.84
2023-01-19T22:58:47.132Z,-1.86
2023-01-19T23:01:10.161Z,-1.91
2023-01-19T23:03:27.153Z,-1.92
2023-01-19T23:05:44.078Z,-1.93
2023-01-19T23:08:02.053Z,-1.99
2023-01-19T23:10:19.352Z,-2.00
2023-01-19T23:12:36.473Z,-2.00
2023-01-19T23:14:54.470Z,-2.02
2023-01-19T23:17:11.798Z,-2.06
2023-01-19T23:19:28.790Z,-2.09
2023-01-19T23:21:45.843Z,-2.11
2023-01-19T23:24:02.787Z,-2.14
2023-01-19T23:26:19.825Z,-2.17
2023-01-19T23:28:37.884Z,-2.18
2023-01-19T23:30:55.398Z,-2.18
2023-01-19T23:33:12.707Z,-2.20
2023-01-19T23:35:30.802Z,-2.22
2023-01-19T23:37:47.873Z,-2.25
2023-01-19T23:40:04.951Z,-2.26
2023-01-19T23:42:23.249Z,-2.29
2023-01-19T23:44:42.808Z,-2.31
2023-01-19T23:47:00.351Z,-2.34
2023-01-19T23:49:17.338Z,-2.34
2023-01-19T23:51:34.749Z,-2.35
2023-01-19T23:53:52.065Z,-2.35
2023-01-19T23:56:10.037Z,-2.34
2023-01-19T23:58:27.518Z,-2.31
